Kalamata, Greece
Current Conditions -  °F | °C
As of 7:20 PM on Tuesday 27 Jan 2015 (Local Time) from LGKL Reporting Station
Light Rain Light Rain  
Wind Chill: 44°   Ceiling: 8000
Heat Index: 46°   Visibility: 5mi
Dew Point: 45°   Wind: 5mph
Humidity: 93%   Direction: 340°NNW
Pressure: 29.83"   Gusts: NA
Location:  37.04°N, 22.11°E
Report Text: LGKL 271620Z 34004KT 8000 -RA FEW020TCU SCT030 BKN080 08/07 Q1010
Loading
Personal Weather Stations






























Interactive Weather Map New forecast layout! Learn more

10-Day Weather Forecast

Advertisements
Track Severe Weather on mobile